KFSW

Fort Madison Municipal Airport

Fort Madison, Iowa, USA
METAR KFSW 210435Z AUTO 15008KT 10SM OVC046 07/05 A2993 RMK AO2
Observed Flight Rules
Jan-21 @ 04:35 UTC (17 minutes ago) Visual Flight Rules
Wind Visibility Clouds
150° at 8 knots 10 miles
  • Overcast at 4,600' AGL
Temperatures Readings
Current 7°C / 45°F
Dewpoint 5°C / 41°F
Humidity 87%
Altimeter 29.93" Hg
Pressure 1014 hPa
Elevation 221
METAR KFSW 210435Z AUTO 15008KT 10SM OVC046 07/05 A2993 RMK AO2
Observed Flight Rules
Jan-21 @ 04:35 UTC
(17 minutes ago)
VFR
Wind Visibility
150° at 8 knots 10 miles
Clouds
  • Overcast at 4,600' AGL
Temperature Dewpoint
7°C / 45°F 5°C / 41°F
Humidity Altimeter Pressure
87% 29.93" Hg 1014 hPa